Time;durP1;ratioP1;P1;durP2;ratioP2;P2;SDS_P1;SDS_P2;PMS_P1;PMS_P2;Temp;Humidity;BMP_temperature;BMP_pressure;BME280_temperature;BME280_humidity;BME280_pressure;Samples;Min_cycle;Max_cycle;Signal;HPM_P1;HPM_P2
2022/04/21 00:00:16;;;;;;;4.67;3.00;;;1.30;89.10;;;;;;4179560;28;20803;-69
2022/04/21 00:02:17;;;;;;;7.33;3.10;;;1.30;89.30;;;;;;4185530;28;20435;-69
2022/04/21 00:04:18;;;;;;;4.63;2.80;;;1.30;89.30;;;;;;4196247;28;20792;-69
2022/04/21 00:06:18;;;;;;;4.30;3.13;;;1.20;89.30;;;;;;4195503;28;20712;-69
2022/04/21 00:08:20;;;;;;;3.73;2.53;;;1.20;90.00;;;;;;4196103;28;20619;-69
2022/04/21 00:10:22;;;;;;;4.33;3.00;;;1.20;90.00;;;;;;4195699;28;20202;-69
2022/04/21 00:12:23;;;;;;;5.63;3.10;;;1.20;90.30;;;;;;4195608;28;20963;-69
2022/04/21 00:14:23;;;;;;;4.90;3.17;;;1.20;90.00;;;;;;4195916;28;20422;-69
2022/04/21 00:16:24;;;;;;;4.00;2.60;;;1.10;90.10;;;;;;4195393;28;20214;-69
2022/04/21 00:18:25;;;;;;;3.10;2.53;;;1.10;90.00;;;;;;4196670;28;20201;-69
2022/04/21 00:20:25;;;;;;;4.20;3.27;;;1.10;89.70;;;;;;4194822;28;20198;-69
2022/04/21 00:25:03;;;;;;;4.23;3.03;;;1.10;90.00;;;;;;4193323;28;20296;-69
2022/04/21 00:27:04;;;;;;;10.03;3.17;;;1.00;90.10;;;;;;4194220;28;20947;-69
2022/04/21 00:29:04;;;;;;;4.10;2.93;;;1.00;90.20;;;;;;4195758;28;20425;-69
2022/04/21 00:31:05;;;;;;;4.57;2.73;;;1.00;90.20;;;;;;4195675;28;20240;-69
2022/04/21 00:33:06;;;;;;;3.63;2.70;;;1.00;90.10;;;;;;4195795;28;20175;-69
2022/04/21 00:35:11;;;;;;;4.57;3.10;;;1.00;90.00;;;;;;4195672;28;20233;-69
2022/04/21 00:37:12;;;;;;;4.30;3.37;;;0.90;90.40;;;;;;4195465;28;20218;-69
2022/04/21 00:39:12;;;;;;;4.23;3.07;;;0.90;90.80;;;;;;4194404;28;20986;-69
2022/04/21 00:41:13;;;;;;;3.67;2.70;;;0.80;90.70;;;;;;4195757;28;20187;-69
2022/04/21 00:43:14;;;;;;;4.47;3.07;;;0.80;90.70;;;;;;4195694;28;20175;-69
2022/04/21 00:45:15;;;;;;;4.23;2.73;;;0.80;90.70;;;;;;4195534;28;20206;-69
2022/04/21 00:47:18;;;;;;;4.90;3.03;;;0.80;90.60;;;;;;4193776;28;20221;-69
2022/04/21 00:49:20;;;;;;;3.33;2.60;;;0.90;90.60;;;;;;4194076;28;20575;-69
2022/04/21 00:51:23;;;;;;;3.67;2.40;;;0.90;90.30;;;;;;4195429;28;20433;-69
2022/04/21 00:53:24;;;;;;;5.97;3.20;;;0.90;90.30;;;;;;4194448;28;20900;-69
2022/04/21 00:55:26;;;;;;;4.00;2.63;;;0.80;90.20;;;;;;4194476;28;20493;-69
2022/04/21 00:57:28;;;;;;;4.37;3.20;;;0.80;90.40;;;;;;4195403;28;20714;-69
2022/04/21 00:59:28;;;;;;;3.63;2.80;;;0.80;90.50;;;;;;4195821;28;20795;-70
2022/04/21 01:03:49;;;;;;;4.77;3.20;;;0.90;90.20;;;;;;4195332;28;20748;-69
2022/04/21 01:05:49;;;;;;;6.17;3.80;;;0.90;89.90;;;;;;4194699;28;20453;-68
2022/04/21 01:07:50;;;;;;;4.83;2.87;;;0.80;90.30;;;;;;4194162;28;20206;-69
2022/04/21 01:09:54;;;;;;;3.73;2.80;;;0.70;90.50;;;;;;4195267;28;20215;-69
2022/04/21 01:11:55;;;;;;;3.97;2.70;;;0.70;90.60;;;;;;4195385;28;20187;-69
2022/04/21 01:13:56;;;;;;;4.97;3.43;;;0.70;91.20;;;;;;4194073;28;20432;-69
2022/04/21 01:15:56;;;;;;;5.20;2.97;;;0.70;91.10;;;;;;4177016;28;20218;-69
2022/04/21 01:17:57;;;;;;;4.63;2.87;;;0.60;91.10;;;;;;4195044;28;20199;-69
2022/04/21 01:19:58;;;;;;;5.80;2.87;;;0.70;91.10;;;;;;4195111;28;20191;-69
2022/04/21 01:21:59;;;;;;;4.83;2.70;;;0.70;90.90;;;;;;4194621;28;20872;-69
2022/04/21 01:24:00;;;;;;;4.23;3.30;;;0.70;91.00;;;;;;4197365;28;20425;-69
2022/04/21 01:26:01;;;;;;;4.43;3.40;;;0.70;91.00;;;;;;4197680;28;20188;-70
2022/04/21 01:28:03;;;;;;;5.20;3.10;;;0.70;90.90;;;;;;4196907;28;20230;-69
2022/04/21 01:30:08;;;;;;;5.03;3.10;;;0.60;91.00;;;;;;4197222;28;21312;-69
2022/04/21 01:32:09;;;;;;;3.17;2.60;;;0.70;91.50;;;;;;4197288;28;20457;-70
2022/04/21 01:34:09;;;;;;;3.87;2.47;;;0.60;90.90;;;;;;4198390;28;20460;-69
2022/04/21 01:36:10;;;;;;;7.10;3.50;;;0.70;91.00;;;;;;4197685;28;20210;-69
2022/04/21 01:42:49;;;;;;;4.27;2.47;;;0.80;90.50;;;;;;4197138;28;20941;-69
2022/04/21 01:44:49;;;;;;;5.83;3.17;;;0.90;90.30;;;;;;4198544;28;20416;-70
2022/04/21 01:46:50;;;;;;;5.47;2.90;;;0.80;90.20;;;;;;4196612;28;20179;-69
2022/04/21 01:48:51;;;;;;;6.07;2.90;;;0.80;90.40;;;;;;4194319;28;20212;-69
2022/04/21 01:50:51;;;;;;;4.23;2.77;;;0.80;90.50;;;;;;4180356;28;20179;-69
2022/04/21 01:52:53;;;;;;;3.83;2.80;;;0.80;90.50;;;;;;4181313;28;20580;-69
2022/04/21 01:54:53;;;;;;;5.03;3.30;;;0.80;90.60;;;;;;4181229;28;20194;-69
2022/04/21 01:56:54;;;;;;;4.03;3.20;;;0.70;90.60;;;;;;4181064;28;20427;-69
2022/04/21 01:58:55;;;;;;;4.57;2.97;;;0.70;90.70;;;;;;4181248;28;20207;-70
2022/04/21 02:00:56;;;;;;;4.70;3.27;;;0.60;90.90;;;;;;4181216;28;20191;-69
2022/04/21 02:02:57;;;;;;;6.70;3.30;;;0.50;91.00;;;;;;4181412;28;20179;-69
2022/04/21 02:04:59;;;;;;;8.77;3.20;;;0.50;91.20;;;;;;4181287;28;20430;-69
2022/04/21 02:07:00;;;;;;;5.80;3.37;;;0.50;91.60;;;;;;4182871;28;20190;-69
2022/04/21 02:09:01;;;;;;;5.03;3.63;;;0.50;92.00;;;;;;4197899;28;20490;-70
2022/04/21 02:11:01;;;;;;;5.80;3.57;;;0.50;92.00;;;;;;4196531;28;20734;-69
2022/04/21 02:13:02;;;;;;;6.47;3.30;;;0.50;92.00;;;;;;4197950;28;20545;-69
2022/04/21 02:15:03;;;;;;;4.37;3.10;;;0.40;92.00;;;;;;4197322;28;20217;-71
2022/04/21 02:17:06;;;;;;;4.07;3.03;;;0.40;92.00;;;;;;4197825;28;20213;-69
2022/04/21 02:19:07;;;;;;;4.87;3.17;;;0.40;92.00;;;;;;4198450;28;20871;-69
2022/04/21 02:21:07;;;;;;;4.63;3.17;;;0.40;92.00;;;;;;4196479;28;20409;-69
2022/04/21 02:23:08;;;;;;;4.23;3.07;;;0.30;92.00;;;;;;4196401;28;20206;-69
2022/04/21 02:25:12;;;;;;;4.37;3.07;;;0.30;92.20;;;;;;4197519;28;20666;-69
2022/04/21 02:27:12;;;;;;;5.90;3.23;;;0.20;92.30;;;;;;4197488;28;20191;-69
2022/04/21 02:29:13;;;;;;;5.10;3.50;;;0.20;92.60;;;;;;4197809;28;20471;-69
2022/04/21 02:31:14;;;;;;;5.13;3.40;;;0.20;92.90;;;;;;4197502;28;20191;-69
2022/04/21 02:33:14;;;;;;;5.40;3.37;;;0.20;92.90;;;;;;4195577;28;20225;-69
2022/04/21 02:35:16;;;;;;;4.23;3.07;;;0.20;92.90;;;;;;4197301;28;20229;-69
2022/04/21 02:37:16;;;;;;;4.47;3.27;;;0.20;93.10;;;;;;4197249;28;20552;-69
2022/04/21 02:39:17;;;;;;;4.17;2.83;;;0.20;92.80;;;;;;4197451;28;20429;-69
2022/04/21 02:41:18;;;;;;;6.27;3.03;;;0.20;93.00;;;;;;4197124;28;20237;-69
2022/04/21 02:43:18;;;;;;;6.53;3.00;;;0.30;92.50;;;;;;4197628;28;20182;-69
2022/04/21 02:45:19;;;;;;;5.73;3.27;;;0.20;92.50;;;;;;4197319;28;20248;-70
2022/04/21 02:47:20;;;;;;;4.47;3.17;;;0.20;92.50;;;;;;4197419;28;20702;-69
2022/04/21 02:49:20;;;;;;;5.17;3.53;;;0.10;92.70;;;;;;4196189;28;20192;-69
2022/04/21 02:51:21;;;;;;;4.60;3.63;;;0.00;93.30;;;;;;4195932;28;20193;-69
2022/04/21 02:57:19;;;;;;;5.73;3.80;;;0.00;93.50;;;;;;4197210;28;20243;-69
2022/04/21 02:58:02;;;;;;;4.20;3.30;;;0.00;93.20;;;;;;4196931;28;20452;-69
2022/04/21 03:00:07;;;;;;;4.07;3.00;;;0.10;93.30;;;;;;4197229;28;20878;-69
2022/04/21 03:02:08;;;;;;;4.17;3.00;;;0.10;92.90;;;;;;4195773;28;20175;-69
2022/04/21 03:04:09;;;;;;;5.80;3.50;;;0.00;92.90;;;;;;4196799;28;20425;-69
2022/04/21 03:06:12;;;;;;;3.90;2.70;;;0.10;93.00;;;;;;4196276;28;20422;-69
2022/04/21 03:08:12;;;;;;;6.33;3.20;;;0.10;92.90;;;;;;4196876;28;20241;-69
2022/04/21 03:10:14;;;;;;;4.30;2.80;;;0.00;93.00;;;;;;4195559;28;20830;-69
2022/04/21 03:12:15;;;;;;;4.97;3.73;;;0.00;92.80;;;;;;4185195;28;20202;-69
2022/04/21 03:14:18;;;;;;;4.03;2.87;;;0.00;93.00;;;;;;4180811;28;20817;-69
2022/04/21 03:16:18;;;;;;;4.87;3.50;;;0.00;92.60;;;;;;4195982;28;20249;-69
2022/04/21 03:18:19;;;;;;;5.60;2.87;;;0.00;92.60;;;;;;4196535;28;20489;-69
2022/04/21 03:25:05;;;;;;;6.30;3.47;;;-0.10;93.00;;;;;;4196459;28;20488;-69
2022/04/21 03:27:05;;;;;;;3.87;2.63;;;-0.10;93.00;;;;;;4196171;28;20506;-69
2022/04/21 03:29:06;;;;;;;4.60;3.40;;;-0.10;92.90;;;;;;4195588;28;20560;-69
2022/04/21 03:31:07;;;;;;;5.27;3.53;;;-0.20;93.40;;;;;;4196395;28;20645;-69
2022/04/21 03:33:07;;;;;;;6.40;3.67;;;-0.20;93.40;;;;;;4195122;28;20676;-69
2022/04/21 03:35:09;;;;;;;5.53;3.50;;;-0.20;93.50;;;;;;4194508;28;20255;-69
2022/04/21 03:37:13;;;;;;;5.87;3.70;;;-0.20;93.40;;;;;;4195641;28;20727;-69
2022/04/21 03:39:18;;;;;;;6.13;4.03;;;-0.20;93.50;;;;;;4194775;28;20454;-69
2022/04/21 03:41:19;;;;;;;5.10;3.47;;;-0.20;93.90;;;;;;4194740;28;20508;-69
2022/04/21 03:43:20;;;;;;;4.90;3.20;;;-0.30;93.80;;;;;;4196107;28;20459;-69
2022/04/21 03:45:20;;;;;;;4.80;3.10;;;-0.20;93.70;;;;;;4193370;28;20184;-69
2022/04/21 03:47:21;;;;;;;4.27;3.27;;;-0.20;93.60;;;;;;4196369;28;20239;-69
2022/04/21 03:49:24;;;;;;;5.70;3.23;;;-0.20;93.20;;;;;;4195627;28;20189;-69
2022/04/21 03:51:27;;;;;;;4.50;3.20;;;-0.20;93.40;;;;;;4195444;28;20432;-69
2022/04/21 03:53:27;;;;;;;4.77;3.10;;;-0.20;93.20;;;;;;4195106;28;20813;-69
2022/04/21 03:55:28;;;;;;;6.80;3.77;;;-0.30;93.40;;;;;;4194153;28;20479;-69
2022/04/21 03:57:29;;;;;;;7.00;3.60;;;-0.40;94.10;;;;;;4192894;28;20223;-69
2022/04/21 03:59:29;;;;;;;4.97;3.40;;;-0.40;94.60;;;;;;4186780;28;20192;-69
2022/04/21 04:01:30;;;;;;;4.57;3.37;;;-0.40;94.40;;;;;;4194983;28;20605;-69
2022/04/21 04:03:31;;;;;;;4.60;3.07;;;-0.40;94.30;;;;;;4195396;28;20264;-69
2022/04/21 04:05:32;;;;;;;5.63;3.70;;;-0.30;94.30;;;;;;4195283;28;20468;-69
2022/04/21 04:12:12;;;;;;;8.07;3.77;;;-0.30;94.20;;;;;;4194590;28;20430;-70
2022/04/21 04:14:13;;;;;;;4.70;3.30;;;-0.30;94.10;;;;;;4197414;28;20427;-69
2022/04/21 04:16:13;;;;;;;4.80;3.63;;;-0.30;93.60;;;;;;4195854;28;20245;-69
2022/04/21 04:18:16;;;;;;;5.17;3.03;;;-0.30;93.90;;;;;;4195783;28;20209;-69
2022/04/21 04:20:16;;;;;;;5.03;3.57;;;-0.30;94.10;;;;;;4194652;28;20309;-69
2022/04/21 04:22:17;;;;;;;5.37;3.37;;;-0.30;94.10;;;;;;4194597;28;20430;-70
2022/04/21 04:24:18;;;;;;;7.40;3.93;;;-0.40;93.90;;;;;;4195642;28;20190;-69
2022/04/21 04:26:18;;;;;;;5.67;3.30;;;-0.40;94.10;;;;;;4195229;28;20195;-69
2022/04/21 04:28:19;;;;;;;4.13;3.30;;;-0.50;94.40;;;;;;4195843;28;20238;-69
2022/04/21 04:30:20;;;;;;;6.57;4.13;;;-0.50;94.60;;;;;;4196449;28;20240;-69
2022/04/21 04:32:21;;;;;;;5.93;4.00;;;-0.50;94.50;;;;;;4198521;28;20225;-69
2022/04/21 04:34:22;;;;;;;7.57;4.50;;;-0.40;94.30;;;;;;4198248;28;20182;-69
2022/04/21 04:36:23;;;;;;;7.63;4.77;;;-0.40;94.30;;;;;;4196640;28;20495;-69
2022/04/21 04:38:24;;;;;;;6.27;3.97;;;-0.40;94.20;;;;;;4198330;28;21048;-69
2022/04/21 04:40:25;;;;;;;6.30;4.17;;;-0.40;94.30;;;;;;4197043;28;20521;-69
2022/04/21 04:42:28;;;;;;;5.50;3.67;;;-0.30;94.40;;;;;;4197056;28;20178;-69
2022/04/21 04:44:29;;;;;;;5.83;3.70;;;-0.30;94.10;;;;;;4197082;28;20473;-70
2022/04/21 04:46:35;;;;;;;5.73;3.80;;;-0.30;94.00;;;;;;4196674;28;20448;-69
2022/04/21 04:48:36;;;;;;;5.30;4.00;;;-0.30;93.90;;;;;;4198656;28;20571;-69
2022/04/21 04:50:37;;;;;;;6.90;3.63;;;-0.30;93.80;;;;;;4198204;28;20424;-70
2022/04/21 04:52:37;;;;;;;7.87;4.23;;;-0.20;93.90;;;;;;4198172;28;20190;-69
2022/04/21 04:54:38;;;;;;;7.83;4.03;;;-0.20;93.90;;;;;;4198021;28;20219;-70
2022/04/21 04:56:40;;;;;;;6.80;3.80;;;-0.10;93.90;;;;;;4199152;28;20589;-70
2022/04/21 04:58:41;;;;;;;5.53;4.10;;;-0.10;93.70;;;;;;4199217;28;20237;-70
2022/04/21 05:00:42;;;;;;;5.63;3.67;;;-0.10;93.50;;;;;;4197746;28;20532;-69
2022/04/21 05:02:42;;;;;;;7.23;4.90;;;-0.10;93.30;;;;;;4196487;28;20554;-70
2022/04/21 05:04:43;;;;;;;6.40;3.70;;;-0.10;93.30;;;;;;4197737;28;20665;-70
2022/04/21 05:06:52;;;;;;;6.90;4.17;;;-0.10;93.40;;;;;;4197005;28;20667;-70
2022/04/21 05:08:56;;;;;;;6.07;4.20;;;-0.10;93.60;;;;;;4196535;28;20240;-69
2022/04/21 05:10:57;;;;;;;9.43;4.27;;;0.00;93.70;;;;;;4196529;28;20467;-70
2022/04/21 05:12:57;;;;;;;5.37;3.80;;;0.20;93.30;;;;;;4197723;28;20469;-70
2022/04/21 05:14:58;;;;;;;6.93;4.30;;;0.20;92.80;;;;;;4197532;28;20187;-70
2022/04/21 05:16:59;;;;;;;6.40;4.03;;;0.20;93.00;;;;;;4196933;28;20760;-70
2022/04/21 05:19:00;;;;;;;7.47;4.40;;;0.20;93.00;;;;;;4197539;28;20470;-70
2022/04/21 05:21:01;;;;;;;6.40;3.80;;;0.30;92.90;;;;;;4197978;28;20855;-70
2022/04/21 05:23:06;;;;;;;6.43;4.17;;;0.30;92.90;;;;;;4196597;28;20187;-70
2022/04/21 05:25:11;;;;;;;4.97;3.70;;;0.40;93.00;;;;;;4196329;28;20195;-69
2022/04/21 05:27:12;;;;;;;5.77;4.10;;;0.40;93.20;;;;;;4197108;28;20428;-70
2022/04/21 05:31:33;;;;;;;30.00;5.73;;;0.40;92.50;;;;;;4196389;28;20475;-70
2022/04/21 05:33:35;;;;;;;12.27;4.03;;;0.40;93.10;;;;;;4197454;28;20422;-70
2022/04/21 05:35:36;;;;;;;16.87;5.63;;;0.40;93.20;;;;;;4196659;28;20239;-70
2022/04/21 05:37:37;;;;;;;7.67;3.90;;;0.50;93.40;;;;;;4197323;28;20441;-70
2022/04/21 05:39:38;;;;;;;8.27;4.53;;;0.60;93.30;;;;;;4195898;28;20433;-70
2022/04/21 05:41:39;;;;;;;4.77;3.63;;;0.70;93.00;;;;;;4197474;28;20798;-70
2022/04/21 05:43:46;;;;;;;6.87;3.63;;;0.70;92.90;;;;;;4197392;28;20519;-70
2022/04/21 05:45:48;;;;;;;5.43;3.93;;;0.80;92.70;;;;;;4196537;28;20432;-68
2022/04/21 05:47:49;;;;;;;8.30;4.57;;;0.90;92.30;;;;;;4195797;28;20555;-70
2022/04/21 05:49:50;;;;;;;7.13;3.80;;;0.90;92.30;;;;;;4197071;28;20430;-70
2022/04/21 05:51:53;;;;;;;7.60;4.50;;;1.00;92.00;;;;;;4197109;28;20437;-70
2022/04/21 05:53:57;;;;;;;5.63;4.10;;;1.10;92.00;;;;;;4195881;28;20690;-69
2022/04/21 05:55:58;;;;;;;7.47;4.47;;;1.20;91.80;;;;;;4196372;28;20833;-70
2022/04/21 05:57:58;;;;;;;5.60;3.97;;;1.20;92.10;;;;;;4197284;28;20449;-70
2022/04/21 05:59:59;;;;;;;6.87;4.27;;;1.30;91.50;;;;;;4196941;28;20436;-70
2022/04/21 06:02:00;;;;;;;5.73;4.20;;;1.40;91.10;;;;;;4196887;28;20207;-69
2022/04/21 06:04:00;;;;;;;7.10;4.27;;;1.50;90.50;;;;;;4195770;28;20187;-70
2022/04/21 06:06:02;;;;;;;6.63;4.37;;;1.40;90.70;;;;;;4196212;28;20215;-70
2022/04/21 06:08:05;;;;;;;5.87;3.83;;;1.50;90.70;;;;;;4186907;28;20216;-70
2022/04/21 06:10:07;;;;;;;6.83;4.17;;;1.50;90.70;;;;;;4180422;28;21075;-70
2022/04/21 06:12:09;;;;;;;5.53;4.17;;;1.60;90.80;;;;;;4180226;28;20441;-69
2022/04/21 06:14:10;;;;;;;8.07;4.47;;;1.50;90.90;;;;;;4180465;28;20430;-69
2022/04/21 06:16:10;;;;;;;7.07;4.33;;;1.70;91.10;;;;;;4179445;28;20553;-69
2022/04/21 06:18:11;;;;;;;8.23;4.63;;;1.70;90.60;;;;;;4187393;28;20207;-70
2022/04/21 06:20:12;;;;;;;5.43;3.70;;;1.90;90.40;;;;;;4187440;28;20246;-69
2022/04/21 06:22:12;;;;;;;5.43;4.43;;;1.90;90.10;;;;;;4180146;28;20187;-68
2022/04/21 06:24:13;;;;;;;7.50;3.73;;;1.90;90.60;;;;;;4180130;28;20306;-71
2022/04/21 06:26:14;;;;;;;5.17;4.00;;;2.00;90.60;;;;;;4179339;28;20188;-70
2022/04/21 06:28:15;;;;;;;8.07;4.70;;;2.20;90.50;;;;;;4180014;28;20212;-70
2022/04/21 06:30:16;;;;;;;6.10;4.20;;;2.30;90.10;;;;;;4180040;28;20212;-71
2022/04/21 06:32:17;;;;;;;9.90;4.10;;;2.40;89.90;;;;;;4179997;28;20903;-70
2022/04/21 06:34:17;;;;;;;6.03;4.03;;;2.40;90.20;;;;;;4180053;28;20184;-70
2022/04/21 06:36:18;;;;;;;7.20;4.23;;;2.50;89.30;;;;;;4179211;28;20244;-70
2022/04/21 06:38:19;;;;;;;4.77;3.77;;;2.50;89.20;;;;;;4179851;28;20569;-69
2022/04/21 06:40:20;;;;;;;6.23;4.20;;;2.60;87.90;;;;;;4180267;28;20601;-70
2022/04/21 06:42:21;;;;;;;7.07;4.13;;;2.80;88.70;;;;;;4179911;28;20180;-69
2022/04/21 06:49:01;;;;;;;5.73;4.10;;;3.10;85.50;;;;;;4179889;28;20414;-70
2022/04/21 06:51:02;;;;;;;6.60;4.07;;;3.20;84.40;;;;;;4179802;28;20427;-70
2022/04/21 06:53:06;;;;;;;5.97;4.43;;;3.40;83.80;;;;;;4178348;28;20948;-70
2022/04/21 06:55:08;;;;;;;5.80;4.27;;;3.40;83.90;;;;;;4178147;28;20460;-70
2022/04/21 06:57:08;;;;;;;9.60;5.00;;;3.50;84.00;;;;;;4179253;28;20822;-70
2022/04/21 06:59:09;;;;;;;7.33;5.27;;;3.60;83.10;;;;;;4179637;28;20432;-70
2022/04/21 07:01:10;;;;;;;8.17;5.23;;;3.70;83.40;;;;;;4179400;28;20184;-70
2022/04/21 07:03:11;;;;;;;8.50;5.47;;;3.70;84.10;;;;;;4179584;28;20196;-70
2022/04/21 07:05:13;;;;;;;7.00;4.77;;;4.00;82.80;;;;;;4177835;28;20962;-69
2022/04/21 07:07:14;;;;;;;8.60;4.80;;;4.20;82.80;;;;;;4179027;28;20433;-70
2022/04/21 07:09:15;;;;;;;8.27;4.53;;;4.30;81.50;;;;;;4179418;28;20442;-70
2022/04/21 07:11:20;;;;;;;7.70;5.00;;;4.50;79.70;;;;;;4177969;28;20193;-70
2022/04/21 07:13:21;;;;;;;6.97;4.17;;;4.60;79.80;;;;;;4178179;28;20434;-70
2022/04/21 07:15:21;;;;;;;7.47;4.37;;;4.80;77.90;;;;;;4175988;28;20487;-70
2022/04/21 07:17:22;;;;;;;5.07;3.70;;;4.90;78.30;;;;;;4177891;28;20672;-70
2022/04/21 07:19:23;;;;;;;6.40;4.37;;;5.10;74.40;;;;;;4177931;28;20229;-70
2022/04/21 07:21:23;;;;;;;7.67;3.93;;;5.50;73.50;;;;;;4177947;28;20273;-70
2022/04/21 07:23:24;;;;;;;7.03;4.07;;;5.50;74.00;;;;;;4177888;28;20666;-70
2022/04/21 07:25:25;;;;;;;4.80;3.23;;;5.50;73.80;;;;;;4177360;28;20784;-70
2022/04/21 07:27:25;;;;;;;5.77;3.80;;;5.70;72.30;;;;;;4179116;28;20738;-70
2022/04/21 07:29:26;;;;;;;4.80;3.07;;;5.80;72.00;;;;;;4178208;28;20270;-70
2022/04/21 07:31:28;;;;;;;6.30;3.50;;;5.90;69.30;;;;;;4179285;28;20195;-70
2022/04/21 07:33:29;;;;;;;5.67;3.70;;;6.20;68.50;;;;;;4177780;28;20198;-70
2022/04/21 07:35:29;;;;;;;4.93;3.20;;;6.40;67.70;;;;;;4178247;28;20473;-70
2022/04/21 07:37:32;;;;;;;4.87;3.40;;;6.50;67.20;;;;;;4179258;28;20227;-71
2022/04/21 07:39:33;;;;;;;4.70;3.33;;;6.70;64.10;;;;;;4177887;28;20275;-70
2022/04/21 07:41:34;;;;;;;5.07;3.60;;;7.10;59.60;;;;;;4179274;28;20925;-72
2022/04/21 07:43:34;;;;;;;5.17;3.13;;;7.20;60.40;;;;;;4179222;28;20181;-70
2022/04/21 07:45:40;;;;;;;4.90;3.40;;;7.20;61.50;;;;;;4178470;28;20212;-70
2022/04/21 07:47:41;;;;;;;4.67;3.33;;;7.30;60.90;;;;;;4179372;28;20299;-70
2022/04/21 07:49:45;;;;;;;7.57;3.17;;;7.50;59.20;;;;;;4179207;28;20925;-70
2022/04/21 07:51:45;;;;;;;5.10;3.70;;;7.90;57.60;;;;;;4179286;28;20190;-70
2022/04/21 07:53:46;;;;;;;5.73;3.67;;;8.00;56.30;;;;;;4179060;28;20435;-70
2022/04/21 07:55:50;;;;;;;5.27;3.97;;;8.10;58.40;;;;;;4177935;28;20208;-70
2022/04/21 07:57:58;;;;;;;4.90;3.10;;;8.30;54.40;;;;;;4191309;28;20228;-70
2022/04/21 07:59:59;;;;;;;4.33;3.20;;;8.50;53.30;;;;;;4183705;28;20445;-70
2022/04/21 08:02:00;;;;;;;6.53;3.63;;;8.80;53.10;;;;;;4178975;28;20427;-70
2022/04/21 08:04:04;;;;;;;4.93;3.70;;;8.90;52.00;;;;;;4178997;28;20182;-70
2022/04/21 08:06:05;;;;;;;5.77;3.70;;;9.00;52.00;;;;;;4178251;28;20434;-70
2022/04/21 08:08:10;;;;;;;5.70;3.87;;;9.20;50.20;;;;;;4178931;28;20200;-70
2022/04/21 08:10:12;;;;;;;5.07;3.63;;;9.30;52.50;;;;;;4178962;28;20179;-70
2022/04/21 08:12:13;;;;;;;4.83;3.60;;;9.10;51.40;;;;;;4177565;28;20603;-70
2022/04/21 08:14:16;;;;;;;6.07;3.60;;;9.20;49.50;;;;;;4177558;28;20196;-70
2022/04/21 08:16:16;;;;;;;3.80;3.20;;;9.30;50.40;;;;;;4176641;28;20301;-70
2022/04/21 08:18:17;;;;;;;4.40;3.10;;;9.60;47.60;;;;;;4178576;28;20564;-70
2022/04/21 08:20:18;;;;;;;4.57;3.47;;;9.80;47.20;;;;;;4178639;28;20595;-70
2022/04/21 08:22:18;;;;;;;4.73;3.53;;;9.90;47.30;;;;;;4178466;28;20192;-70
2022/04/21 08:33:36;;;;;;;4.87;3.50;;;10.10;46.30;;;;;;4178369;28;20707;-70
2022/04/21 08:35:37;;;;;;;4.40;3.80;;;10.20;45.30;;;;;;4177639;28;20219;-70
2022/04/21 08:37:37;;;;;;;4.17;3.47;;;10.20;46.10;;;;;;4178418;28;20207;-70
2022/04/21 08:39:38;;;;;;;5.63;3.67;;;10.30;45.10;;;;;;4178197;28;20696;-70
2022/04/21 08:41:47;;;;;;;4.33;3.40;;;10.40;44.80;;;;;;4178301;28;20184;-70
2022/04/21 08:43:49;;;;;;;5.17;3.43;;;10.60;44.20;;;;;;4178322;28;20176;-70
2022/04/21 08:45:51;;;;;;;4.53;3.57;;;10.70;43.30;;;;;;4177358;28;20602;-70
2022/04/21 08:47:58;;;;;;;7.07;4.23;;;10.70;45.60;;;;;;4177020;28;20826;-70
2022/04/21 08:50:06;;;;;;;4.23;3.10;;;10.70;44.60;;;;;;4160751;28;20177;-70
2022/04/21 08:52:07;;;;;;;5.30;3.73;;;10.70;41.80;;;;;;4177057;28;20196;-70
2022/04/21 08:54:08;;;;;;;4.90;4.07;;;10.70;42.40;;;;;;4177207;28;20693;-70
2022/04/21 08:56:10;;;;;;;5.23;4.00;;;10.70;42.60;;;;;;4177354;28;20208;-70
2022/04/21 08:58:14;;;;;;;4.43;3.00;;;10.90;44.20;;;;;;4160448;28;20200;-70
2022/04/21 09:00:15;;;;;;;4.97;3.37;;;11.20;42.50;;;;;;4178105;28;20192;-71
2022/04/21 09:02:16;;;;;;;6.07;3.90;;;11.40;41.60;;;;;;4176951;28;20188;-70
2022/04/21 09:04:16;;;;;;;5.37;3.50;;;11.50;41.60;;;;;;4178242;28;20187;-70
2022/04/21 09:06:21;;;;;;;3.97;3.53;;;11.70;41.50;;;;;;4177491;28;20230;-70
2022/04/21 09:08:25;;;;;;;5.03;3.97;;;11.90;41.90;;;;;;4177002;28;20947;-70
2022/04/21 09:10:28;;;;;;;6.37;4.93;;;12.00;42.50;;;;;;4176822;28;20235;-70
2022/04/21 09:12:29;;;;;;;5.10;3.83;;;12.00;42.60;;;;;;4178013;28;20185;-71
2022/04/21 09:14:30;;;;;;;5.30;3.77;;;12.20;42.10;;;;;;4177025;28;20188;-70
2022/04/21 09:16:34;;;;;;;4.10;3.57;;;12.30;40.70;;;;;;4177401;28;20215;-70
2022/04/21 09:18:44;;;;;;;5.43;3.60;;;12.10;42.30;;;;;;4176360;28;20604;-70
2022/04/21 09:20:53;;;;;;;5.20;3.37;;;11.80;40.90;;;;;;4178105;28;20172;-70
2022/04/21 09:22:57;;;;;;;4.10;3.33;;;11.70;41.20;;;;;;4176616;28;20206;-70
2022/04/21 09:24:59;;;;;;;5.20;4.10;;;11.80;45.60;;;;;;4177900;28;20192;-70
2022/04/21 09:27:00;;;;;;;5.00;3.73;;;12.00;41.10;;;;;;4177411;28;20191;-70
2022/04/21 09:29:00;;;;;;;4.73;3.73;;;12.20;41.00;;;;;;4177862;28;20180;-70
2022/04/21 09:31:02;;;;;;;4.17;3.70;;;12.50;40.20;;;;;;4176605;28;20216;-70
2022/04/21 09:33:02;;;;;;;5.77;4.27;;;12.70;41.10;;;;;;4177718;28;20192;-70
2022/04/21 09:35:05;;;;;;;4.77;3.63;;;12.70;41.20;;;;;;4177529;28;20295;-70
2022/04/21 09:37:07;;;;;;;5.43;4.07;;;12.50;40.60;;;;;;4177529;28;20216;-70
2022/04/21 09:39:15;;;;;;;4.93;3.53;;;12.80;42.30;;;;;;4176420;28;20194;-70
2022/04/21 09:41:15;;;;;;;3.90;3.10;;;12.90;40.30;;;;;;4176563;28;20639;-70
2022/04/21 09:43:30;;;;;;;6.10;3.73;;;12.80;39.90;;;;;;4178847;28;20176;-70
2022/04/21 09:48:01;;;;;;;4.47;4.00;;;13.20;40.00;;;;;;4180006;28;20211;-70
2022/04/21 09:50:12;;;;;;;4.53;3.73;;;13.00;40.90;;;;;;4180701;28;20248;-70
2022/04/21 09:52:25;;;;;;;4.43;3.73;;;13.30;40.50;;;;;;4179706;28;20500;-70
2022/04/21 09:54:30;;;;;;;7.83;4.17;;;13.10;39.80;;;;;;4180871;28;20182;-70
2022/04/21 09:56:36;;;;;;;5.70;4.20;;;13.30;41.00;;;;;;4187888;28;20199;-70
2022/04/21 09:58:41;;;;;;;4.77;3.63;;;13.20;39.40;;;;;;4196084;28;20199;-70
2022/04/21 10:00:42;;;;;;;4.40;3.80;;;13.50;39.60;;;;;;4197353;28;20171;-70
2022/04/21 10:02:45;;;;;;;4.33;3.20;;;13.90;39.50;;;;;;4197059;28;20715;-70
2022/04/21 10:04:47;;;;;;;5.47;4.10;;;14.50;38.80;;;;;;4195804;28;20176;-70
2022/04/21 10:06:48;;;;;;;6.63;4.60;;;14.00;36.90;;;;;;4195012;28;20223;-70
2022/04/21 10:08:50;;;;;;;6.07;4.40;;;14.50;39.70;;;;;;4197170;28;20706;-70
2022/04/21 10:10:52;;;;;;;5.93;3.90;;;14.40;38.00;;;;;;4197093;28;20647;-70
2022/04/21 10:12:57;;;;;;;6.07;3.77;;;14.70;38.20;;;;;;4197132;28;20226;-70
2022/04/21 10:15:00;;;;;;;5.83;3.90;;;15.20;37.40;;;;;;4197073;28;20821;-70
2022/04/21 10:17:02;;;;;;;5.23;4.20;;;15.20;36.20;;;;;;4196442;28;20183;-70
2022/04/21 10:19:03;;;;;;;5.57;4.50;;;14.40;37.10;;;;;;4196932;28;20260;-70
2022/04/21 10:21:03;;;;;;;5.83;4.20;;;14.90;37.10;;;;;;4195775;28;20168;-70
2022/04/21 10:23:15;;;;;;;5.03;4.47;;;15.60;36.90;;;;;;4196785;28;20674;-70
2022/04/21 10:25:15;;;;;;;7.13;4.80;;;16.70;33.70;;;;;;4195418;28;20187;-70
2022/04/21 10:27:34;;;;;;;7.27;4.60;;;16.10;34.90;;;;;;4194956;28;20246;-70
2022/04/21 10:29:50;;;;;;;6.20;5.30;;;16.90;34.50;;;;;;4196896;28;20672;-69
2022/04/21 10:31:57;;;;;;;6.73;5.20;;;17.40;33.30;;;;;;4195546;28;20251;-69
2022/04/21 10:34:05;;;;;;;7.47;4.67;;;17.50;32.30;;;;;;4196649;28;20175;-69
2022/04/21 10:36:06;;;;;;;8.57;5.13;;;16.90;36.20;;;;;;4194668;28;20203;-69
2022/04/21 10:38:12;;;;;;;6.13;4.37;;;16.90;34.20;;;;;;4195433;28;20195;-68
2022/04/21 10:40:21;;;;;;;7.00;5.73;;;17.80;32.00;;;;;;4196517;28;20229;-69
2022/04/21 10:42:21;;;;;;;6.60;5.30;;;17.90;32.40;;;;;;4195467;28;20638;-68
2022/04/21 10:44:28;;;;;;;8.07;5.33;;;18.10;31.60;;;;;;4196410;28;20183;-68
2022/04/21 10:46:30;;;;;;;6.33;5.00;;;17.40;34.10;;;;;;4195784;28;20808;-68
2022/04/21 10:48:42;;;;;;;7.97;5.27;;;18.00;32.00;;;;;;4195183;28;20203;-68
2022/04/21 10:50:44;;;;;;;5.37;4.60;;;18.70;30.70;;;;;;4196471;28;20191;-68
2022/04/21 10:57:31;;;;;;;5.63;5.00;;;17.80;35.30;;;;;;4196331;28;20202;-68
2022/04/21 10:59:50;;;;;;;5.67;5.17;;;19.10;31.00;;;;;;4195139;28;20176;-68
2022/04/21 11:01:54;;;;;;;9.03;5.13;;;19.30;30.80;;;;;;4196197;28;20176;-68
2022/04/21 11:04:07;;;;;;;6.47;5.07;;;19.10;31.10;;;;;;4195052;28;20180;-68
2022/04/21 11:06:11;;;;;;;5.50;5.00;;;19.70;29.60;;;;;;4193987;28;20206;-68
2022/04/21 11:08:14;;;;;;;6.30;4.90;;;19.90;30.30;;;;;;4196101;28;20202;-69
2022/04/21 11:10:44;;;;;;;7.53;5.60;;;19.70;31.40;;;;;;4196234;28;20184;-69
2022/04/21 11:12:49;;;;;;;6.23;5.13;;;19.40;28.80;;;;;;4191721;28;20195;-69
2022/04/21 11:14:50;;;;;;;6.30;5.13;;;19.60;29.40;;;;;;4195852;28;20187;-69
2022/04/21 11:16:50;;;;;;;6.77;5.60;;;18.70;29.50;;;;;;4194020;28;20330;-69
2022/04/21 11:18:51;;;;;;;6.77;5.50;;;17.90;32.10;;;;;;4195990;28;20227;-69
2022/04/21 11:20:52;;;;;;;6.77;6.07;;;19.70;29.80;;;;;;4191194;28;20242;-69
2022/04/21 11:22:53;;;;;;;6.43;5.73;;;20.00;27.80;;;;;;4192393;28;20175;-69
2022/04/21 11:24:58;;;;;;;7.00;6.30;;;19.50;30.00;;;;;;4195678;28;20190;-69